Terminal Aerodrome Forecast
Issued by NWS

Home | Current Version | Previous Version | Graphics & Text | Print | Product List | Glossary On
Versions: 1 2 3 4 5 6 7 8 9 10 11 12 13 14 15 16 17 18 19 20 21 22 23 24 25
000
FTUS45 KGGW 291100 RRA
TAFOLF
TAF
KOLF 291142Z 2912/3012 26007KT P6SM SCT150
     FM291500 28011KT P6SM SCT150
     FM300300 VRB05KT P6SM FEW210=

USA.gov is the U.S. government's official web portal to all federal, state and local government web resources and services.